Impacts TAF Board
For situational awareness. Not to be used for flight planning purposes.
IDs:

CYVR - Vancouver Intl, BC, CN

Issued at 0238 UTC 19 Oct 2021
Updated at 0245 UTC 19 Oct 2021
Potential Impact None Slight Moderate High
Time0200Z 19/03Z 19/04Z 19/05Z 19/06Z 19/07Z 19/08Z 19/09Z 19/10Z 19/11Z 19/12Z 19/13Z 19/14Z 19/15Z>>
Type OBS PRVL PRVL PRVL PRVL PRVL PRVL PRVL
  [PRB30]  
PRVL
  [PRB30]  
PRVL
  [PRB30]  
PRVL
  [PRB30]  
PRVL
  [PRB30]  
PRVL
  [PRB30]  
PRVL
VIS 15 >6 >6 >6 >6 >6 >6 >6
  [2]  
>6
  [2]  
>6
  [2]  
>6
  [2]  
>6
  [2]  
>6
  [2]  
>6
CIG 240 -- -- -- -- -- -- --
  [5]  
--
  [5]  
--
  [5]  
--
  [5]  
--
  [5]  
--
  [5]  
--
Cover BKN SCT SCT SCT SCT SCT SCT SCT
  [BKN]  
SCT
  [BKN]  
SCT
  [BKN]  
SCT
  [BKN]  
SCT
  [BKN]  
SCT
  [BKN]  
SCT
FltCat VFR VFR VFR VFR VFR VFR VFR VFR
  [IFR]  
VFR
  [IFR]  
VFR
  [IFR]  
VFR
  [IFR]  
VFR
  [IFR]  
VFR
  [IFR]  
VFR
WX -- -- -- -- -- -- -- --
  [BR]  
--
  [BR]  
--
  [BR]  
--
  [BR]  
--
  [BR]  
--
  [BR]  
--
WDir VRB 80 80 80 80 80 80 80
[80]
80
[80]
80
[80]
80
[80]
80
[80]
80
[80]
80
WSpd 0 5 5 5 5 5 5 5
  [5]  
5
  [5]  
5
  [5]  
5
  [5]  
5
  [5]  
5
  [5]  
5
WGst -- -- -- -- -- -- -- --
  [--]  
--
  [--]  
--
  [--]  
--
  [--]  
--
  [--]  
--
  [--]  
--
Raw TAF
TAF CYVR 190238Z 1903/2006 08005KT P6SM SCT025
  PROB30 1909/1915 2SM BR BKN005
  FM191800 10007KT P6SM SCT200
  FM200000 29007KT P6SM FEW060 BKN220 RMK NXT FCST BY 190600Z


Raw METAR
CYVR 190200Z 00000KT 15SM FEW028 SCT150 SCT210 BKN240 08/07 A3000 RMK SC1AC2CI1CI1 SLP160
CYVR 190100Z 23002KT 25SM SCT028 SCT150 SCT180 BKN210 10/07 A3000 RMK SC3AC1AC1CI3 AC TR SLP160
CYVR 190000Z 23005KT 25SM FEW025 SCT030 SCT180 SCT210 11/08 A3001 RMK SC2SC1AC1CI1 AC TR CI TR SLP162

METAR Board
Radar Display
Forecast Discussion
For situational awareness. Not to be used for flight planning purposes.